Time;durP1;ratioP1;P1;durP2;ratioP2;P2;SDS_P1;SDS_P2;PMS_P1;PMS_P2;Temp;Humidity;BMP_temperature;BMP_pressure;BME280_temperature;BME280_humidity;BME280_pressure;Samples;Min_cycle;Max_cycle;Signal;HPM_P1;HPM_P2
2023/12/06 00:02:15;;;;;;;2.80;1.30;;;;;;;3.39;100.00;95629.88;4994786;28;20246;-69
2023/12/06 00:04:41;;;;;;;1.57;1.13;;;;;;;3.33;100.00;95627.88;4995413;28;20219;-68
2023/12/06 00:07:08;;;;;;;1.60;1.10;;;;;;;3.46;100.00;95625.72;4996276;28;21136;-68
2023/12/06 00:09:35;;;;;;;1.33;1.20;;;;;;;3.61;100.00;95632.84;4996491;28;20219;-68
2023/12/06 00:12:02;;;;;;;1.33;1.00;;;;;;;3.56;100.00;95629.06;4997189;28;20204;-68
2023/12/06 00:14:28;;;;;;;2.07;1.30;;;;;;;3.38;100.00;95625.66;4996568;28;20209;-68
2023/12/06 00:16:56;;;;;;;2.60;1.30;;;;;;;3.30;100.00;95633.38;4996777;28;21232;-69
2023/12/06 00:19:22;;;;;;;2.93;1.50;;;;;;;3.56;100.00;95624.66;4995936;28;20257;-69
2023/12/06 00:21:49;;;;;;;4.93;1.23;;;;;;;3.60;100.00;95630.41;4996245;28;20224;-68
2023/12/06 00:24:15;;;;;;;3.20;1.40;;;;;;;3.36;100.00;95633.59;4996782;28;20209;-68
2023/12/06 00:26:43;;;;;;;1.27;1.10;;;;;;;3.72;100.00;95636.03;5004869;28;20665;-69
2023/12/06 00:29:10;;;;;;;3.00;1.03;;;;;;;3.40;100.00;95624.53;4995234;28;20245;-69
2023/12/06 00:31:37;;;;;;;7.37;2.10;;;;;;;3.56;100.00;95629.88;4996771;28;20740;-68
2023/12/06 00:34:03;;;;;;;2.37;1.20;;;;;;;3.59;100.00;95629.59;4997197;28;20204;-68
2023/12/06 00:36:30;;;;;;;2.27;1.20;;;;;;;3.59;100.00;95629.59;4999335;28;20219;-68
2023/12/06 00:38:56;;;;;;;2.00;1.30;;;;;;;3.61;100.00;95637.25;4999162;28;20282;-69
2023/12/06 00:41:24;;;;;;;2.80;1.10;;;;;;;3.50;100.00;95630.50;5000235;28;20229;-68
2023/12/06 00:43:53;;;;;;;4.47;1.83;;;;;;;3.59;100.00;95628.75;4999667;28;20206;-68
2023/12/06 00:46:20;;;;;;;3.90;1.90;;;;;;;3.48;100.00;95634.22;4998692;28;20205;-68
2023/12/06 00:48:46;;;;;;;1.13;1.03;;;;;;;3.56;100.00;95636.88;5000607;28;20205;-68
2023/12/06 00:51:13;;;;;;;2.17;1.33;;;;;;;3.24;100.00;95629.56;5001354;28;20202;-68
2023/12/06 00:53:39;;;;;;;2.70;1.70;;;;;;;3.40;100.00;95640.16;4998914;28;20413;-68
2023/12/06 00:56:12;;;;;;;2.70;1.70;;;;;;;3.56;100.00;95635.09;4999515;28;21263;-69
2023/12/06 00:58:38;;;;;;;1.97;1.40;;;;;;;3.57;100.00;95646.34;4999585;28;20261;-68
2023/12/06 01:01:07;;;;;;;2.80;1.37;;;;;;;3.37;100.00;95650.03;5007613;28;20228;-68
2023/12/06 01:03:33;;;;;;;1.97;1.20;;;;;;;3.48;100.00;95642.03;4999794;28;20738;-69
2023/12/06 01:06:00;;;;;;;1.63;1.20;;;;;;;3.52;100.00;95645.97;5000068;28;20219;-68
2023/12/06 01:08:26;;;;;;;1.90;1.30;;;;;;;3.48;100.00;95647.22;5002158;28;21384;-68
2023/12/06 01:10:53;;;;;;;2.53;1.37;;;;;;;3.51;100.00;95642.53;5001611;28;20234;-69
2023/12/06 01:13:19;;;;;;;1.80;1.17;;;;;;;3.44;100.00;95651.91;4999316;28;20212;-68
2023/12/06 01:15:46;;;;;;;2.73;1.70;;;;;;;3.50;100.00;95655.69;5000411;28;20200;-68
2023/12/06 01:18:14;;;;;;;1.80;1.40;;;;;;;3.62;100.00;95650.94;4999297;28;20200;-69
2023/12/06 01:20:40;;;;;;;2.97;1.67;;;;;;;3.49;100.00;95654.88;4999438;28;20228;-69
2023/12/06 01:23:07;;;;;;;3.10;1.40;;;;;;;3.51;100.00;95658.16;4999576;28;20283;-69
2023/12/06 01:25:34;;;;;;;6.50;3.00;;;;;;;3.67;100.00;95656.50;4999483;28;20202;-69
2023/12/06 01:28:01;;;;;;;7.53;3.07;;;;;;;3.69;100.00;95657.19;4999240;28;20698;-69
2023/12/06 01:30:27;;;;;;;4.83;1.90;;;;;;;3.52;100.00;95662.41;4999827;28;20236;-69
2023/12/06 01:32:54;;;;;;;1.37;1.13;;;;;;;3.35;100.00;95665.00;5000987;28;20198;-69
2023/12/06 01:35:22;;;;;;;2.60;1.50;;;;;;;3.72;100.00;95667.31;5007817;28;20205;-69
2023/12/06 01:37:48;;;;;;;2.27;1.73;;;;;;;3.61;100.00;95663.28;4999010;28;20261;-69
2023/12/06 01:40:15;;;;;;;1.97;1.20;;;;;;;3.55;100.00;95671.69;4998809;28;20845;-69
2023/12/06 01:42:41;;;;;;;2.13;1.30;;;;;;;3.57;100.00;95669.78;4999014;28;20223;-69
2023/12/06 01:45:09;;;;;;;3.70;1.77;;;;;;;3.64;100.00;95669.03;4999467;28;20215;-69
2023/12/06 01:47:37;;;;;;;4.20;1.80;;;;;;;3.72;100.00;95672.50;5003439;28;20200;-69
2023/12/06 01:50:05;;;;;;;1.83;1.27;;;;;;;3.78;100.00;95671.94;4999151;28;20228;-69
2023/12/06 01:52:33;;;;;;;2.03;1.43;;;;;;;3.74;100.00;95673.19;4998683;28;20205;-69
2023/12/06 01:55:00;;;;;;;2.07;1.53;;;;;;;3.60;100.00;95672.88;4999611;28;21419;-69
2023/12/06 01:57:28;;;;;;;2.63;1.37;;;;;;;3.57;100.00;95674.97;4998235;28;20734;-69
2023/12/06 01:59:55;;;;;;;2.33;1.60;;;;;;;3.65;100.00;95663.66;4997952;28;20220;-69
2023/12/06 02:02:22;;;;;;;2.23;1.47;;;;;;;3.59;100.00;95675.63;4998331;28;20996;-69
2023/12/06 02:04:49;;;;;;;2.90;1.40;;;;;;;3.63;100.00;95665.59;4998988;28;20208;-69
2023/12/06 02:07:16;;;;;;;2.30;1.43;;;;;;;3.73;100.00;95668.16;5002275;28;20911;-69
2023/12/06 02:09:45;;;;;;;1.40;1.10;;;;;;;3.72;100.00;95676.91;5002098;28;20219;-69
2023/12/06 02:12:11;;;;;;;2.43;1.53;;;;;;;3.61;100.00;95684.94;4998578;28;20209;-69
2023/12/06 02:14:38;;;;;;;2.47;1.27;;;;;;;3.68;100.00;95686.81;4998479;28;20215;-69
2023/12/06 02:17:05;;;;;;;2.70;1.60;;;;;;;3.69;100.00;95683.25;4999058;28;21409;-69
2023/12/06 02:19:32;;;;;;;1.73;1.17;;;;;;;3.63;100.00;95683.03;4997550;28;20314;-69
2023/12/06 02:22:00;;;;;;;3.30;1.57;;;;;;;3.67;100.00;95690.38;4998647;28;20241;-69
2023/12/06 02:24:29;;;;;;;1.97;1.30;;;;;;;3.67;100.00;95690.38;4998405;28;20203;-69
2023/12/06 02:26:57;;;;;;;1.37;0.97;;;;;;;3.70;100.00;95694.47;4999002;28;20207;-69
2023/12/06 02:29:24;;;;;;;1.67;1.30;;;;;;;3.43;100.00;95696.31;4997778;28;20222;-69
2023/12/06 02:31:51;;;;;;;2.47;1.40;;;;;;;3.61;100.00;95695.34;5001988;28;21476;-69
2023/12/06 02:34:21;;;;;;;2.23;1.33;;;;;;;3.74;100.00;95690.59;4998083;28;21072;-69
2023/12/06 02:36:50;;;;;;;2.50;2.00;;;;;;;3.92;100.00;95684.44;4998203;28;20204;-69
2023/12/06 02:39:17;;;;;;;2.23;1.33;;;;;;;3.74;100.00;95688.81;4997672;28;20223;-69
2023/12/06 02:41:44;;;;;;;2.13;1.40;;;;;;;3.77;100.00;95685.09;5005489;28;20722;-69
2023/12/06 02:44:12;;;;;;;2.50;1.10;;;;;;;3.77;100.00;95683.31;4999178;28;20216;-69
2023/12/06 02:46:39;;;;;;;2.40;1.47;;;;;;;3.71;100.00;95681.28;4998213;28;20205;-68
2023/12/06 02:49:05;;;;;;;3.40;1.87;;;;;;;3.80;100.00;95683.00;4997790;28;20237;-69
2023/12/06 02:51:32;;;;;;;3.07;1.70;;;;;;;3.78;100.00;95686.72;4997816;28;20201;-69
2023/12/06 02:53:58;;;;;;;1.67;1.07;;;;;;;3.86;100.00;95679.81;4998375;28;20213;-69
2023/12/06 02:56:25;;;;;;;3.00;1.93;;;;;;;3.57;100.00;95683.59;5002156;28;20208;-69
2023/12/06 02:58:52;;;;;;;2.67;1.50;;;;;;;3.73;100.00;95681.16;4999690;28;20227;-69
2023/12/06 03:01:20;;;;;;;2.57;1.57;;;;;;;3.75;100.00;95685.22;4997937;28;20208;-70
2023/12/06 03:03:46;;;;;;;4.23;2.20;;;;;;;3.63;100.00;95676.00;5001949;28;20214;-69
2023/12/06 03:06:13;;;;;;;3.80;2.27;;;;;;;3.87;100.00;95685.81;4998679;28;20217;-71
2023/12/06 03:08:39;;;;;;;5.50;1.70;;;;;;;3.77;100.00;95682.50;5006382;28;20211;-71
2023/12/06 03:11:06;;;;;;;2.63;1.50;;;;;;;3.83;100.00;95680.13;5001621;28;20223;-69
2023/12/06 03:13:32;;;;;;;2.37;1.50;;;;;;;3.77;100.00;95683.31;5001827;28;20201;-69
2023/12/06 03:15:59;;;;;;;2.03;1.40;;;;;;;3.82;100.00;95678.47;5009524;28;20223;-69
2023/12/06 03:18:27;;;;;;;1.97;1.40;;;;;;;3.86;100.00;95684.22;5002723;28;20204;-69
2023/12/06 03:20:53;;;;;;;4.30;1.90;;;;;;;3.98;100.00;95680.38;5002169;28;20225;-69
2023/12/06 03:23:20;;;;;;;3.10;2.10;;;;;;;3.84;100.00;95684.34;4998490;28;20258;-69
2023/12/06 03:25:46;;;;;;;4.43;2.57;;;;;;;3.93;100.00;95690.44;4999861;28;20208;-69
2023/12/06 03:28:13;;;;;;;2.10;1.53;;;;;;;3.88;100.00;95692.69;4997837;28;20212;-69
2023/12/06 03:30:39;;;;;;;2.33;1.60;;;;;;;3.87;100.00;95691.88;4997571;28;20240;-69
2023/12/06 03:33:06;;;;;;;4.33;2.13;;;;;;;3.87;100.00;95699.69;4997728;28;20201;-69
2023/12/06 03:35:33;;;;;;;2.33;1.60;;;;;;;4.02;100.00;95694.75;4996813;28;20212;-69
2023/12/06 03:38:00;;;;;;;7.40;1.93;;;;;;;3.91;100.00;95698.41;4997194;28;20210;-69
2023/12/06 03:40:27;;;;;;;2.93;1.73;;;;;;;3.90;100.00;95688.97;4997116;28;20221;-69
2023/12/06 03:42:53;;;;;;;3.00;1.83;;;;;;;3.60;100.00;95693.72;4997455;28;20226;-69
2023/12/06 03:45:20;;;;;;;3.10;1.93;;;;;;;3.73;100.00;95689.78;4997161;28;20209;-69
2023/12/06 03:47:47;;;;;;;3.27;1.90;;;;;;;3.86;100.00;95682.41;4997446;28;20200;-69
2023/12/06 03:50:14;;;;;;;2.33;1.60;;;;;;;3.75;100.00;95682.63;5003382;28;20224;-69
2023/12/06 03:52:41;;;;;;;3.10;1.87;;;;;;;3.90;100.00;95685.53;4996822;28;20214;-69
2023/12/06 03:55:08;;;;;;;5.87;3.07;;;;;;;3.81;100.00;95686.44;4996118;28;20702;-69
2023/12/06 03:57:35;;;;;;;2.30;1.57;;;;;;;3.75;100.00;95689.63;4997091;28;20206;-69
2023/12/06 04:00:03;;;;;;;3.20;1.40;;;;;;;3.76;100.00;95694.69;4997406;28;20301;-69
2023/12/06 04:02:29;;;;;;;4.70;1.80;;;;;;;3.76;100.00;95699.91;4996992;28;20226;-69
2023/12/06 04:04:56;;;;;;;2.97;1.50;;;;;;;3.83;100.00;95692.31;4997757;28;20214;-69
2023/12/06 04:07:22;;;;;;;2.23;1.50;;;;;;;3.78;100.00;95687.56;5001429;28;20211;-69
2023/12/06 04:09:50;;;;;;;2.87;1.77;;;;;;;3.84;100.00;95686.13;5006670;28;20221;-69
2023/12/06 04:12:17;;;;;;;4.03;2.00;;;;;;;3.78;100.00;95686.72;5000597;28;21253;-69
2023/12/06 04:14:43;;;;;;;2.00;1.57;;;;;;;3.77;100.00;95691.13;5007868;28;20579;-70
2023/12/06 04:17:11;;;;;;;2.67;1.83;;;;;;;3.86;100.00;95690.22;5000478;28;20710;-69
2023/12/06 04:19:38;;;;;;;3.10;1.77;;;;;;;3.81;100.00;95692.47;5005824;28;20228;-69
2023/12/06 04:22:05;;;;;;;4.10;2.03;;;;;;;3.86;100.00;95692.84;5001954;28;20244;-69
2023/12/06 04:24:31;;;;;;;11.63;2.30;;;;;;;3.69;100.00;95693.66;5011531;28;20204;-69
2023/12/06 04:26:59;;;;;;;2.60;1.87;;;;;;;3.92;100.00;95694.00;5004137;28;20211;-70
2023/12/06 04:29:25;;;;;;;4.73;1.90;;;;;;;3.76;100.00;95701.69;5000834;28;20233;-70
2023/12/06 04:31:52;;;;;;;2.20;1.50;;;;;;;3.75;100.00;95703.47;5000310;28;20216;-69
2023/12/06 04:34:19;;;;;;;3.67;1.80;;;;;;;3.94;100.00;95707.72;5004857;28;20211;-69
2023/12/06 04:36:46;;;;;;;3.23;1.87;;;;;;;3.96;100.00;95703.16;5001062;28;20200;-69
2023/12/06 04:39:12;;;;;;;2.37;1.73;;;;;;;3.91;100.00;95708.03;5000636;28;20236;-69
2023/12/06 04:41:39;;;;;;;3.27;1.63;;;;;;;3.93;100.00;95699.06;5000264;28;20248;-69
2023/12/06 04:44:06;;;;;;;2.27;1.90;;;;;;;4.00;100.00;95702.72;5001758;28;20211;-69
2023/12/06 04:46:33;;;;;;;4.20;2.00;;;;;;;3.72;100.00;95708.19;5000576;28;20199;-69
2023/12/06 04:48:59;;;;;;;3.00;1.80;;;;;;;3.88;100.00;95711.75;5007374;28;20209;-69
2023/12/06 04:51:26;;;;;;;2.17;1.30;;;;;;;3.89;100.00;95712.56;5000584;28;20297;-69
2023/12/06 04:53:52;;;;;;;2.17;1.20;;;;;;;3.86;100.00;95720.69;5000430;28;20209;-69
2023/12/06 04:56:19;;;;;;;3.20;1.70;;;;;;;3.92;100.00;95718.31;5002724;28;20216;-69
2023/12/06 04:58:45;;;;;;;3.83;2.03;;;;;;;3.83;100.00;95726.19;5004670;28;20206;-69
2023/12/06 05:01:13;;;;;;;1.80;1.60;;;;;;;4.04;100.00;95721.50;5000663;28;20213;-69
2023/12/06 05:03:39;;;;;;;3.00;1.60;;;;;;;3.95;100.00;95723.22;4999412;28;20224;-69
2023/12/06 05:06:06;;;;;;;6.53;1.50;;;;;;;3.76;100.00;95728.56;5000376;28;20208;-69
2023/12/06 05:08:32;;;;;;;2.70;1.90;;;;;;;3.93;100.00;95727.75;4999516;28;20210;-69
2023/12/06 05:10:59;;;;;;;3.40;1.80;;;;;;;4.00;100.00;95722.78;5003815;28;20237;-69
2023/12/06 05:13:26;;;;;;;4.03;2.23;;;;;;;3.85;100.00;95734.69;4999572;28;21238;-69
2023/12/06 05:15:52;;;;;;;3.37;1.70;;;;;;;3.85;100.00;95730.28;5000117;28;20986;-69
2023/12/06 05:18:20;;;;;;;1.97;1.43;;;;;;;4.02;100.00;95731.25;4999874;28;20210;-69
2023/12/06 05:20:47;;;;;;;3.20;1.60;;;;;;;3.88;100.00;95730.00;4999078;28;20233;-69
2023/12/06 05:23:12;;;;;;;2.40;1.77;;;;;;;4.01;100.00;95733.03;4999867;28;20237;-69
2023/12/06 05:25:39;;;;;;;2.50;1.67;;;;;;;4.02;100.00;95731.25;5000008;28;20219;-69
2023/12/06 05:28:05;;;;;;;1.50;1.33;;;;;;;3.95;100.00;95736.25;4999042;28;20210;-69
2023/12/06 05:30:32;;;;;;;3.97;2.10;;;;;;;4.03;100.00;95731.09;4999475;28;20225;-69
2023/12/06 05:32:58;;;;;;;3.70;1.67;;;;;;;4.00;100.00;95728.78;4999793;28;20209;-70
2023/12/06 05:35:26;;;;;;;3.60;1.43;;;;;;;4.09;100.00;95732.31;5004210;28;20208;-69
2023/12/06 05:37:52;;;;;;;4.87;1.90;;;;;;;4.09;100.00;95735.72;5006660;28;20210;-69
2023/12/06 05:40:20;;;;;;;3.57;1.67;;;;;;;3.96;100.00;95737.03;4999941;28;20220;-69
2023/12/06 05:42:47;;;;;;;6.63;2.20;;;;;;;3.91;100.00;95737.50;4998913;28;20229;-69
2023/12/06 05:45:16;;;;;;;1.90;1.53;;;;;;;4.04;100.00;95735.34;4999182;28;20225;-69
2023/12/06 05:47:42;;;;;;;4.53;2.00;;;;;;;3.94;100.00;95734.59;4999585;28;20242;-69
2023/12/06 05:50:12;;;;;;;2.87;1.40;;;;;;;3.90;100.00;95733.25;4999638;28;20718;-69
2023/12/06 05:52:40;;;;;;;2.33;1.37;;;;;;;4.05;100.00;95736.16;4998979;28;20200;-69
2023/12/06 05:55:07;;;;;;;9.93;2.70;;;;;;;4.06;100.00;95733.41;4999602;28;20209;-69
2023/12/06 05:57:34;;;;;;;7.17;3.23;;;;;;;4.01;100.00;95734.81;4998535;28;20329;-69
2023/12/06 06:00:00;;;;;;;6.10;3.23;;;;;;;3.92;100.00;95740.94;4999190;28;20609;-69
2023/12/06 06:02:27;;;;;;;22.40;7.17;;;;;;;3.93;100.00;95742.56;4999165;28;20244;-69
2023/12/06 06:04:53;;;;;;;5.73;2.03;;;;;;;3.91;100.00;95747.94;4998847;28;20209;-69
2023/12/06 06:07:20;;;;;;;4.23;2.07;;;;;;;3.91;100.00;95745.31;4999457;28;20232;-69
2023/12/06 06:09:47;;;;;;;5.60;2.57;;;;;;;4.21;100.00;95744.94;4998018;28;20221;-70
2023/12/06 06:12:14;;;;;;;8.03;3.53;;;;;;;3.95;100.00;95751.88;5006052;28;20212;-69
2023/12/06 06:14:40;;;;;;;3.03;2.20;;;;;;;4.04;100.00;95750.97;5003031;28;20666;-68
2023/12/06 06:17:07;;;;;;;10.00;1.90;;;;;;;4.03;100.00;95749.34;5006237;28;20205;-69
2023/12/06 06:19:33;;;;;;;4.90;2.20;;;;;;;3.93;100.00;95745.19;4999613;28;20225;-69
2023/12/06 06:22:00;;;;;;;7.07;3.30;;;;;;;4.09;100.00;95753.97;4996594;28;20228;-69
2023/12/06 06:24:26;;;;;;;15.57;4.73;;;;;;;4.11;100.00;95756.41;4996505;28;20787;-70
2023/12/06 06:26:54;;;;;;;13.37;4.10;;;;;;;4.17;100.00;95750.63;4996983;28;20308;-70
2023/12/06 06:29:21;;;;;;;16.70;6.30;;;;;;;4.14;100.00;95767.38;4996925;28;20966;-69
2023/12/06 06:31:48;;;;;;;34.67;11.17;;;;;;;4.04;100.00;95761.41;4996735;28;20676;-69
2023/12/06 06:34:14;;;;;;;33.63;10.83;;;;;;;4.09;100.00;95764.41;4995909;28;21110;-70
2023/12/06 06:36:41;;;;;;;17.27;7.47;;;;;;;4.08;100.00;95757.53;4996294;28;20212;-70
2023/12/06 06:39:07;;;;;;;41.07;12.90;;;;;;;4.05;100.00;95764.81;4996224;28;20235;-70
2023/12/06 06:41:34;;;;;;;16.87;5.77;;;;;;;4.06;100.00;95769.06;4996715;28;20206;-69
2023/12/06 06:44:02;;;;;;;10.87;4.60;;;;;;;4.27;100.00;95767.81;4996494;28;20231;-70
2023/12/06 06:46:28;;;;;;;5.03;3.07;;;;;;;4.28;100.00;95766.84;4998541;28;20437;-70
2023/12/06 06:48:55;;;;;;;18.17;6.03;;;;;;;4.20;100.00;95777.22;5001577;28;20217;-70
2023/12/06 06:51:30;;;;;;;20.07;4.70;;;;;;;4.24;100.00;95778.56;4998280;28;20590;-70
2023/12/06 06:53:58;;;;;;;5.93;2.30;;;;;;;4.31;100.00;95782.19;4998199;28;20212;-70
2023/12/06 06:56:24;;;;;;;6.47;2.60;;;;;;;4.25;100.00;95780.16;4998506;28;20209;-70
2023/12/06 06:58:51;;;;;;;6.70;1.90;;;;;;;4.09;100.00;95787.03;4997031;28;20687;-70
2023/12/06 07:01:19;;;;;;;13.97;4.07;;;;;;;4.37;100.00;95782.41;5004180;28;20616;-68
2023/12/06 07:03:45;;;;;;;13.50;3.87;;;;;;;4.20;100.00;95785.03;5020190;28;20619;-68
2023/12/06 07:06:12;;;;;;;4.17;2.67;;;;;;;4.24;100.00;95783.75;5022359;28;20197;-68
2023/12/06 07:08:39;;;;;;;7.93;3.63;;;;;;;4.28;100.00;95788.50;5021563;28;20237;-68
2023/12/06 07:11:06;;;;;;;11.53;4.73;;;;;;;4.16;100.00;95796.72;5022020;28;20243;-68
2023/12/06 07:13:33;;;;;;;5.23;2.93;;;;;;;4.27;100.00;95793.88;5024774;28;20204;-68
2023/12/06 07:16:00;;;;;;;3.90;2.67;;;;;;;4.25;100.00;95793.19;5024071;28;20651;-68
2023/12/06 07:18:28;;;;;;;4.17;1.90;;;;;;;4.19;100.00;95796.44;5028087;28;20232;-68
2023/12/06 07:20:54;;;;;;;6.13;2.30;;;;;;;4.31;100.00;95800.44;5024148;28;20220;-68
2023/12/06 07:23:21;;;;;;;6.97;2.23;;;;;;;4.32;100.00;95804.69;5020430;28;20626;-68
2023/12/06 07:25:48;;;;;;;3.23;2.20;;;;;;;4.37;100.00;95805.06;5019482;28;20213;-68
2023/12/06 07:28:14;;;;;;;5.50;2.63;;;;;;;4.34;100.00;95808.78;5025392;28;20307;-68
2023/12/06 07:30:41;;;;;;;4.17;2.07;;;;;;;4.21;100.00;95807.50;5021924;28;20259;-68
2023/12/06 07:33:08;;;;;;;4.83;2.50;;;;;;;4.24;100.00;95810.66;5025744;28;20659;-68
2023/12/06 07:35:36;;;;;;;4.13;2.20;;;;;;;4.44;100.00;95812.16;5029267;28;20228;-68
2023/12/06 07:38:02;;;;;;;4.13;2.37;;;;;;;4.26;100.00;95816.56;5018510;28;20220;-69
2023/12/06 07:40:29;;;;;;;3.23;1.93;;;;;;;4.37;100.00;95818.91;4997461;28;20731;-68
2023/12/06 07:42:56;;;;;;;3.10;1.73;;;;;;;4.46;100.00;95814.59;4997324;28;20216;-70
2023/12/06 07:45:22;;;;;;;2.30;1.50;;;;;;;4.45;100.00;95820.78;5000096;28;20216;-68
2023/12/06 07:47:49;;;;;;;5.90;2.60;;;;;;;4.30;100.00;95814.44;5001066;28;20205;-69
2023/12/06 07:50:16;;;;;;;5.43;2.03;;;;;;;4.41;100.00;95819.44;5001639;28;20228;-69
2023/12/06 07:52:44;;;;;;;3.50;1.97;;;;;;;4.53;100.00;95826.91;5005689;28;20207;-68
2023/12/06 07:55:13;;;;;;;2.93;1.90;;;;;;;4.50;100.00;95831.59;5003875;28;20297;-70
2023/12/06 07:57:39;;;;;;;5.47;2.67;;;;;;;4.32;100.00;95833.38;5003558;28;20205;-70
2023/12/06 08:00:07;;;;;;;4.23;2.37;;;;;;;4.54;100.00;95832.91;5000936;28;20229;-69
2023/12/06 08:02:35;;;;;;;4.27;2.30;;;;;;;4.46;100.00;95827.63;5001051;28;20232;-69
2023/12/06 08:05:02;;;;;;;3.30;1.97;;;;;;;4.39;100.00;95824.81;5002809;28;20561;-71
2023/12/06 08:07:29;;;;;;;6.53;1.70;;;;;;;4.46;100.00;95838.88;5000842;28;20234;-69
2023/12/06 08:09:57;;;;;;;4.57;2.07;;;;;;;4.37;100.00;95834.56;5000906;28;20225;-69
2023/12/06 08:12:23;;;;;;;3.93;1.90;;;;;;;4.42;100.00;95834.13;5004815;28;20220;-69
2023/12/06 08:14:49;;;;;;;5.03;2.20;;;;;;;4.58;100.00;95837.69;5002320;28;20205;-68
2023/12/06 08:17:16;;;;;;;9.97;2.20;;;;;;;4.51;100.00;95838.44;5003366;28;20206;-69
2023/12/06 08:19:42;;;;;;;2.77;2.00;;;;;;;4.51;100.00;95843.66;5003407;28;20734;-69
2023/12/06 08:22:09;;;;;;;3.83;2.33;;;;;;;4.54;100.00;95844.16;5030437;28;20251;-68
2023/12/06 08:24:35;;;;;;;5.10;2.10;;;;;;;4.41;100.00;95845.53;5024507;28;20234;-68
2023/12/06 08:27:04;;;;;;;2.37;1.93;;;;;;;4.69;100.00;95847.88;5035390;28;20209;-68
2023/12/06 08:29:31;;;;;;;2.67;1.90;;;;;;;4.71;100.00;95860.78;5025401;28;20221;-68
2023/12/06 08:31:57;;;;;;;3.43;1.70;;;;;;;4.46;100.00;95856.34;5029016;28;20214;-68
2023/12/06 08:34:24;;;;;;;2.50;1.70;;;;;;;4.60;100.00;95866.25;5020357;28;20208;-68
2023/12/06 08:36:51;;;;;;;2.30;1.80;;;;;;;4.68;100.00;95866.31;5029653;28;20218;-68
2023/12/06 08:39:18;;;;;;;3.47;1.90;;;;;;;4.70;100.00;95864.34;5026855;28;20254;-68
2023/12/06 08:41:44;;;;;;;3.60;2.27;;;;;;;4.76;100.00;95868.97;5024852;28;20660;-68
2023/12/06 08:44:12;;;;;;;2.30;1.87;;;;;;;4.89;100.00;95870.25;5017670;28;20232;-68
2023/12/06 08:46:38;;;;;;;7.73;2.37;;;;;;;4.79;100.00;95881.75;5025059;28;20210;-68
2023/12/06 08:49:05;;;;;;;2.73;2.33;;;;;;;4.69;100.00;95883.63;5031646;28;20563;-71
2023/12/06 08:51:31;;;;;;;1.83;1.67;;;;;;;4.70;100.00;95886.06;5026937;28;20204;-68
2023/12/06 08:53:58;;;;;;;2.13;1.77;;;;;;;4.76;100.00;95880.25;5030749;28;20216;-68
2023/12/06 08:56:24;;;;;;;5.83;3.00;;;;;;;4.74;100.00;95883.97;5022420;28;20204;-68
2023/12/06 08:58:51;;;;;;;2.40;1.93;;;;;;;4.75;100.00;95890.81;5023528;28;20663;-68
2023/12/06 09:01:19;;;;;;;4.43;2.20;;;;;;;4.81;100.00;95888.44;5029272;28;20209;-68
2023/12/06 09:03:46;;;;;;;3.00;2.27;;;;;;;4.71;100.00;95892.09;5017837;28;20298;-68
2023/12/06 09:06:12;;;;;;;4.83;2.90;;;;;;;4.83;100.00;95897.75;5033076;28;20209;-68
2023/12/06 09:08:39;;;;;;;2.57;1.60;;;;;;;4.64;100.00;95896.28;5020225;28;20214;-68
2023/12/06 09:11:07;;;;;;;2.23;1.63;;;;;;;4.77;100.00;95907.16;5027991;28;20723;-68
2023/12/06 09:13:34;;;;;;;5.13;2.07;;;;;;;4.86;100.00;95907.91;5011430;28;20201;-69
2023/12/06 09:16:00;;;;;;;2.40;1.50;;;;;;;4.86;100.00;95907.91;5006406;28;20209;-69
2023/12/06 09:18:28;;;;;;;3.37;1.87;;;;;;;5.01;100.00;95901.16;5003198;28;20204;-68
2023/12/06 09:20:55;;;;;;;2.13;1.63;;;;;;;4.83;100.00;95912.59;5008566;28;20237;-68
2023/12/06 09:23:21;;;;;;;3.13;2.07;;;;;;;4.97;100.00;95907.66;5021647;28;20202;-69
2023/12/06 09:25:48;;;;;;;2.93;2.00;;;;;;;4.95;100.00;95907.00;5005682;28;20202;-70
2023/12/06 09:28:14;;;;;;;2.57;1.70;;;;;;;5.19;100.00;95899.31;5029121;28;20201;-69
2023/12/06 09:30:41;;;;;;;5.20;2.13;;;;;;;5.17;100.00;95890.84;5028851;28;20240;-69
2023/12/06 09:33:07;;;;;;;4.97;2.00;;;;;;;5.26;100.00;95902.19;5032422;28;20210;-69
2023/12/06 09:35:35;;;;;;;4.27;2.23;;;;;;;5.36;100.00;95897.66;5025706;28;20233;-69
2023/12/06 09:38:02;;;;;;;3.23;2.07;;;;;;;5.36;100.00;95895.88;5031731;28;20630;-69
2023/12/06 09:40:29;;;;;;;3.33;1.93;;;;;;;5.31;100.00;95898.13;5029624;28;20229;-69
2023/12/06 09:43:01;;;;;;;2.27;1.43;;;;;;;5.48;100.00;95895.44;5036833;28;20263;-69
2023/12/06 09:45:29;;;;;;;3.27;1.83;;;;;;;5.36;100.00;95895.88;5032163;28;20696;-69
2023/12/06 09:47:56;;;;;;;2.77;1.73;;;;;;;5.26;100.00;95903.00;5022175;28;20206;-69
2023/12/06 09:50:23;;;;;;;2.57;1.67;;;;;;;5.25;100.00;95909.19;5028303;28;20228;-69
2023/12/06 09:52:52;;;;;;;3.77;2.00;;;;;;;5.40;100.00;95905.03;5016753;28;20195;-69
2023/12/06 09:55:20;;;;;;;5.00;2.50;;;;;;;5.41;100.00;95904.06;5016412;28;20675;-69
2023/12/06 09:57:48;;;;;;;3.53;2.37;;;;;;;5.21;100.00;95902.63;5028321;28;20205;-69
2023/12/06 10:00:15;;;;;;;2.70;1.77;;;;;;;5.44;100.00;95912.41;5021073;28;20240;-69
2023/12/06 10:03:12;;;;;;;3.63;2.00;;;;;;;5.35;100.00;95904.69;5020019;28;20249;-69
2023/12/06 10:05:38;;;;;;;3.37;1.90;;;;;;;5.16;100.00;95907.47;5011795;28;20226;-69
2023/12/06 10:08:06;;;;;;;3.10;2.10;;;;;;;5.45;100.00;95905.41;5029331;28;20206;-69
2023/12/06 10:10:33;;;;;;;3.27;2.13;;;;;;;5.28;100.00;95902.81;5026204;28;20238;-69
2023/12/06 10:13:00;;;;;;;4.27;2.43;;;;;;;5.17;100.00;95906.50;5021096;28;20728;-69
2023/12/06 10:15:37;;;;;;;3.90;2.20;;;;;;;5.55;100.00;95909.53;5026263;28;20205;-69
2023/12/06 10:18:04;;;;;;;3.57;2.50;;;;;;;5.35;100.00;95896.84;5021001;28;20210;-69
2023/12/06 10:20:30;;;;;;;3.67;2.13;;;;;;;5.40;100.00;95897.19;5008170;28;20227;-69
2023/12/06 10:22:57;;;;;;;4.10;2.17;;;;;;;5.38;100.00;95895.72;5004518;28;20556;-70
2023/12/06 10:25:25;;;;;;;4.07;2.13;;;;;;;5.50;100.00;95893.50;5009604;28;20226;-69
2023/12/06 10:27:51;;;;;;;3.60;2.20;;;;;;;5.45;100.00;95898.38;5012602;28;20198;-70
2023/12/06 10:30:21;;;;;;;4.60;2.10;;;;;;;5.47;100.00;95895.59;5009420;28;20234;-68
2023/12/06 10:32:48;;;;;;;4.33;2.40;;;;;;;5.43;100.00;95891.66;5015983;28;20271;-70
2023/12/06 10:35:15;;;;;;;3.63;2.27;;;;;;;5.46;100.00;95899.22;5004294;28;20237;-68
2023/12/06 10:37:42;;;;;;;4.50;2.07;;;;;;;5.45;100.00;95894.94;4997568;28;20206;-69
2023/12/06 10:40:11;;;;;;;4.03;2.70;;;;;;;5.26;100.00;95904.78;4997460;28;20222;-70
2023/12/06 10:42:44;;;;;;;4.43;3.13;;;;;;;5.50;100.00;95900.53;5000656;28;20663;-70
2023/12/06 10:45:12;;;;;;;5.57;2.83;;;;;;;5.31;100.00;95903.34;5006956;28;20233;-69
2023/12/06 10:47:41;;;;;;;2.57;1.80;;;;;;;5.38;100.00;95904.38;4998315;28;20210;-69
2023/12/06 10:50:10;;;;;;;4.03;2.27;;;;;;;5.39;100.00;95911.22;4999620;28;20225;-69
2023/12/06 10:52:37;;;;;;;4.17;2.57;;;;;;;5.39;100.00;95905.19;5000052;28;20208;-70
2023/12/06 10:55:06;;;;;;;3.67;2.40;;;;;;;5.51;100.00;95907.38;5002631;28;20209;-68
2023/12/06 10:57:34;;;;;;;3.63;2.00;;;;;;;5.67;100.00;95910.09;4998411;28;20218;-69
2023/12/06 11:00:03;;;;;;;3.77;2.10;;;;;;;5.59;100.00;95904.84;4997801;28;20234;-69
2023/12/06 11:02:30;;;;;;;4.13;2.17;;;;;;;5.57;100.00;95909.38;4997811;28;20213;-70
2023/12/06 11:05:05;;;;;;;5.13;2.30;;;;;;;5.75;100.00;95902.28;4998523;28;20234;-70
2023/12/06 11:07:59;;;;;;;6.80;2.47;;;;;;;5.90;100.00;95903.38;4997486;28;20205;-69
2023/12/06 11:10:36;;;;;;;2.83;1.93;;;;;;;5.77;100.00;95900.38;4999324;28;20222;-68
2023/12/06 11:13:12;;;;;;;3.27;2.13;;;;;;;5.72;100.00;95902.63;4996830;28;20221;-70
2023/12/06 11:15:55;;;;;;;8.07;2.33;;;;;;;5.79;100.00;95898.41;4997103;28;20209;-70
2023/12/06 11:18:26;;;;;;;4.23;2.53;;;;;;;5.73;100.00;95910.28;5003880;28;20767;-70
2023/12/06 11:20:54;;;;;;;4.00;2.20;;;;;;;5.47;100.00;95903.44;4999309;28;20228;-70
2023/12/06 11:23:23;;;;;;;4.07;2.40;;;;;;;5.46;100.00;95907.06;4996631;28;20221;-69
2023/12/06 11:25:50;;;;;;;5.47;2.63;;;;;;;5.57;100.00;95904.97;4997504;28;20233;-70
2023/12/06 11:28:20;;;;;;;4.63;2.90;;;;;;;5.55;100.00;95911.34;4998266;28;20210;-70
2023/12/06 11:30:52;;;;;;;4.97;2.30;;;;;;;5.65;100.00;95907.66;4996544;28;20271;-70
2023/12/06 11:33:19;;;;;;;3.50;2.43;;;;;;;5.31;100.00;95916.41;5000406;28;20252;-69